sensor_id;sensor_type;location;lat;lon;timestamp;P1;durP1;ratioP1;P2;durP2;ratioP2
30380;SDS011;17169;50.966;11.038;2023-04-01T00:03:59;3.33;;;1.08;;
30380;SDS011;17169;50.966;11.038;2023-04-01T00:07:02;5.70;;;1.50;;
30380;SDS011;17169;50.966;11.038;2023-04-01T00:10:06;3.65;;;0.90;;
30380;SDS011;17169;50.966;11.038;2023-04-01T00:13:10;4.05;;;1.05;;
30380;SDS011;17169;50.966;11.038;2023-04-01T00:16:13;4.57;;;1.15;;
30380;SDS011;17169;50.966;11.038;2023-04-01T00:19:16;5.55;;;1.10;;
30380;SDS011;17169;50.966;11.038;2023-04-01T00:22:19;5.32;;;0.98;;
30380;SDS011;17169;50.966;11.038;2023-04-01T00:25:22;7.95;;;1.23;;
30380;SDS011;17169;50.966;11.038;2023-04-01T00:28:26;5.78;;;1.40;;
30380;SDS011;17169;50.966;11.038;2023-04-01T00:31:29;2.65;;;0.93;;
30380;SDS011;17169;50.966;11.038;2023-04-01T00:34:31;4.88;;;1.02;;
30380;SDS011;17169;50.966;11.038;2023-04-01T00:37:34;5.30;;;1.10;;
30380;SDS011;17169;50.966;11.038;2023-04-01T00:40:37;6.18;;;1.27;;
30380;SDS011;17169;50.966;11.038;2023-04-01T00:43:44;3.65;;;1.05;;
30380;SDS011;17169;50.966;11.038;2023-04-01T00:46:47;4.57;;;1.20;;
30380;SDS011;17169;50.966;11.038;2023-04-01T00:49:51;4.30;;;1.15;;
30380;SDS011;17169;50.966;11.038;2023-04-01T00:52:55;3.75;;;1.00;;
30380;SDS011;17169;50.966;11.038;2023-04-01T00:55:59;5.63;;;1.60;;
30380;SDS011;17169;50.966;11.038;2023-04-01T00:59:06;2.97;;;0.98;;
30380;SDS011;17169;50.966;11.038;2023-04-01T01:02:13;4.15;;;1.08;;
30380;SDS011;17169;50.966;11.038;2023-04-01T01:05:18;1.17;;;0.85;;
30380;SDS011;17169;50.966;11.038;2023-04-01T01:08:27;5.63;;;1.08;;
30380;SDS011;17169;50.966;11.038;2023-04-01T01:11:39;4.22;;;1.08;;
30380;SDS011;17169;50.966;11.038;2023-04-01T01:14:48;3.92;;;0.82;;
30380;SDS011;17169;50.966;11.038;2023-04-01T01:17:57;3.00;;;1.00;;
30380;SDS011;17169;50.966;11.038;2023-04-01T01:24:48;3.38;;;0.90;;
30380;SDS011;17169;50.966;11.038;2023-04-01T01:28:01;1.67;;;0.80;;
30380;SDS011;17169;50.966;11.038;2023-04-01T01:31:15;2.42;;;0.98;;
30380;SDS011;17169;50.966;11.038;2023-04-01T01:34:22;3.70;;;0.90;;
30380;SDS011;17169;50.966;11.038;2023-04-01T01:37:33;2.63;;;0.80;;
30380;SDS011;17169;50.966;11.038;2023-04-01T01:40:36;1.55;;;0.80;;
30380;SDS011;17169;50.966;11.038;2023-04-01T01:43:44;2.65;;;0.82;;
30380;SDS011;17169;50.966;11.038;2023-04-01T01:49:51;1.95;;;0.82;;
30380;SDS011;17169;50.966;11.038;2023-04-01T01:53:06;1.85;;;0.85;;
30380;SDS011;17169;50.966;11.038;2023-04-01T01:56:11;1.45;;;0.77;;
30380;SDS011;17169;50.966;11.038;2023-04-01T01:59:14;2.17;;;0.90;;
30380;SDS011;17169;50.966;11.038;2023-04-01T02:02:19;4.60;;;1.08;;
30380;SDS011;17169;50.966;11.038;2023-04-01T02:05:23;5.20;;;1.08;;
30380;SDS011;17169;50.966;11.038;2023-04-01T02:08:30;2.45;;;1.00;;
30380;SDS011;17169;50.966;11.038;2023-04-01T02:11:37;2.00;;;1.00;;
30380;SDS011;17169;50.966;11.038;2023-04-01T02:14:45;1.42;;;0.77;;
30380;SDS011;17169;50.966;11.038;2023-04-01T02:17:53;3.42;;;1.10;;
30380;SDS011;17169;50.966;11.038;2023-04-01T02:20:57;2.15;;;0.88;;
30380;SDS011;17169;50.966;11.038;2023-04-01T02:24:04;1.37;;;0.70;;
30380;SDS011;17169;50.966;11.038;2023-04-01T02:27:08;2.88;;;0.90;;
30380;SDS011;17169;50.966;11.038;2023-04-01T02:30:12;2.60;;;1.02;;
30380;SDS011;17169;50.966;11.038;2023-04-01T02:33:16;1.67;;;0.80;;
30380;SDS011;17169;50.966;11.038;2023-04-01T02:36:20;2.60;;;1.00;;
30380;SDS011;17169;50.966;11.038;2023-04-01T02:39:24;4.00;;;0.95;;
30380;SDS011;17169;50.966;11.038;2023-04-01T02:42:27;1.85;;;0.80;;
30380;SDS011;17169;50.966;11.038;2023-04-01T02:45:30;3.53;;;0.88;;
30380;SDS011;17169;50.966;11.038;2023-04-01T02:48:32;3.90;;;1.10;;
30380;SDS011;17169;50.966;11.038;2023-04-01T02:51:34;1.23;;;0.52;;
30380;SDS011;17169;50.966;11.038;2023-04-01T02:54:38;1.95;;;0.70;;
30380;SDS011;17169;50.966;11.038;2023-04-01T02:57:41;1.85;;;0.70;;
30380;SDS011;17169;50.966;11.038;2023-04-01T03:00:43;2.25;;;0.95;;
30380;SDS011;17169;50.966;11.038;2023-04-01T03:03:46;3.03;;;0.70;;
30380;SDS011;17169;50.966;11.038;2023-04-01T03:06:48;0.90;;;0.70;;
30380;SDS011;17169;50.966;11.038;2023-04-01T03:09:52;5.65;;;1.08;;
30380;SDS011;17169;50.966;11.038;2023-04-01T03:12:54;2.72;;;0.70;;
30380;SDS011;17169;50.966;11.038;2023-04-01T03:15:56;1.70;;;0.60;;
30380;SDS011;17169;50.966;11.038;2023-04-01T03:18:59;3.42;;;0.80;;
30380;SDS011;17169;50.966;11.038;2023-04-01T03:22:02;1.80;;;0.75;;
30380;SDS011;17169;50.966;11.038;2023-04-01T03:25:06;0.98;;;0.68;;
30380;SDS011;17169;50.966;11.038;2023-04-01T03:28:09;2.45;;;0.85;;
30380;SDS011;17169;50.966;11.038;2023-04-01T03:31:12;1.63;;;0.65;;
30380;SDS011;17169;50.966;11.038;2023-04-01T03:34:16;2.78;;;0.85;;
30380;SDS011;17169;50.966;11.038;2023-04-01T03:37:18;2.92;;;0.95;;
30380;SDS011;17169;50.966;11.038;2023-04-01T03:40:22;3.25;;;0.90;;
30380;SDS011;17169;50.966;11.038;2023-04-01T03:43:26;1.73;;;0.60;;
30380;SDS011;17169;50.966;11.038;2023-04-01T03:46:29;2.17;;;0.80;;
30380;SDS011;17169;50.966;11.038;2023-04-01T03:49:31;0.60;;;0.60;;
30380;SDS011;17169;50.966;11.038;2023-04-01T03:52:34;2.20;;;0.80;;
30380;SDS011;17169;50.966;11.038;2023-04-01T03:55:38;2.95;;;0.90;;
30380;SDS011;17169;50.966;11.038;2023-04-01T03:58:41;1.80;;;0.70;;
30380;SDS011;17169;50.966;11.038;2023-04-01T04:01:43;3.22;;;0.90;;
30380;SDS011;17169;50.966;11.038;2023-04-01T04:04:48;1.53;;;0.90;;
30380;SDS011;17169;50.966;11.038;2023-04-01T04:07:50;2.33;;;0.90;;
30380;SDS011;17169;50.966;11.038;2023-04-01T04:10:56;4.82;;;0.85;;
30380;SDS011;17169;50.966;11.038;2023-04-01T04:13:59;2.92;;;0.90;;
30380;SDS011;17169;50.966;11.038;2023-04-01T04:17:02;1.98;;;0.80;;
30380;SDS011;17169;50.966;11.038;2023-04-01T04:20:05;3.47;;;1.40;;
30380;SDS011;17169;50.966;11.038;2023-04-01T04:23:08;6.60;;;1.08;;
30380;SDS011;17169;50.966;11.038;2023-04-01T04:26:12;3.38;;;0.70;;
30380;SDS011;17169;50.966;11.038;2023-04-01T04:29:16;2.13;;;1.00;;
30380;SDS011;17169;50.966;11.038;2023-04-01T04:32:18;3.72;;;0.82;;
30380;SDS011;17169;50.966;11.038;2023-04-01T04:35:21;3.15;;;0.93;;
30380;SDS011;17169;50.966;11.038;2023-04-01T04:38:23;1.58;;;0.82;;
30380;SDS011;17169;50.966;11.038;2023-04-01T04:41:27;1.98;;;0.77;;
30380;SDS011;17169;50.966;11.038;2023-04-01T04:44:29;2.45;;;0.88;;
30380;SDS011;17169;50.966;11.038;2023-04-01T04:47:32;2.25;;;0.90;;
30380;SDS011;17169;50.966;11.038;2023-04-01T04:50:34;3.30;;;0.98;;
30380;SDS011;17169;50.966;11.038;2023-04-01T04:53:37;2.08;;;0.70;;
30380;SDS011;17169;50.966;11.038;2023-04-01T04:56:40;1.00;;;0.68;;
30380;SDS011;17169;50.966;11.038;2023-04-01T04:59:43;4.03;;;0.95;;
30380;SDS011;17169;50.966;11.038;2023-04-01T05:02:45;6.20;;;1.38;;
30380;SDS011;17169;50.966;11.038;2023-04-01T05:05:48;1.25;;;0.70;;
30380;SDS011;17169;50.966;11.038;2023-04-01T05:08:51;3.05;;;0.90;;
30380;SDS011;17169;50.966;11.038;2023-04-01T05:11:55;1.27;;;0.60;;
30380;SDS011;17169;50.966;11.038;2023-04-01T05:14:57;2.75;;;0.73;;
30380;SDS011;17169;50.966;11.038;2023-04-01T05:18:00;1.65;;;0.80;;
30380;SDS011;17169;50.966;11.038;2023-04-01T05:21:02;2.10;;;0.80;;
30380;SDS011;17169;50.966;11.038;2023-04-01T05:24:07;1.58;;;0.65;;
30380;SDS011;17169;50.966;11.038;2023-04-01T05:27:12;1.77;;;0.70;;
30380;SDS011;17169;50.966;11.038;2023-04-01T05:30:14;8.13;;;3.95;;
30380;SDS011;17169;50.966;11.038;2023-04-01T05:33:16;2.03;;;1.42;;
30380;SDS011;17169;50.966;11.038;2023-04-01T05:36:19;2.90;;;0.65;;
30380;SDS011;17169;50.966;11.038;2023-04-01T05:39:21;2.83;;;0.85;;
30380;SDS011;17169;50.966;11.038;2023-04-01T05:42:25;3.75;;;1.38;;
30380;SDS011;17169;50.966;11.038;2023-04-01T05:45:27;2.85;;;0.75;;
30380;SDS011;17169;50.966;11.038;2023-04-01T05:48:30;6.30;;;1.10;;
30380;SDS011;17169;50.966;11.038;2023-04-01T05:51:34;2.10;;;0.80;;
30380;SDS011;17169;50.966;11.038;2023-04-01T05:54:36;2.78;;;0.93;;
30380;SDS011;17169;50.966;11.038;2023-04-01T05:57:40;1.65;;;0.60;;
30380;SDS011;17169;50.966;11.038;2023-04-01T06:00:42;2.58;;;0.82;;
30380;SDS011;17169;50.966;11.038;2023-04-01T06:03:45;3.00;;;0.73;;
30380;SDS011;17169;50.966;11.038;2023-04-01T06:06:48;3.70;;;1.15;;
30380;SDS011;17169;50.966;11.038;2023-04-01T06:09:50;2.10;;;0.88;;
30380;SDS011;17169;50.966;11.038;2023-04-01T06:12:56;3.83;;;1.90;;
30380;SDS011;17169;50.966;11.038;2023-04-01T06:16:07;4.90;;;0.80;;
30380;SDS011;17169;50.966;11.038;2023-04-01T06:19:21;2.97;;;0.88;;
30380;SDS011;17169;50.966;11.038;2023-04-01T06:22:34;2.42;;;0.80;;
30380;SDS011;17169;50.966;11.038;2023-04-01T06:25:53;3.10;;;1.02;;
30380;SDS011;17169;50.966;11.038;2023-04-01T06:29:12;6.65;;;1.23;;
30380;SDS011;17169;50.966;11.038;2023-04-01T06:32:30;2.55;;;0.90;;
30380;SDS011;17169;50.966;11.038;2023-04-01T06:39:24;2.40;;;0.75;;
30380;SDS011;17169;50.966;11.038;2023-04-01T06:42:45;2.65;;;0.85;;
30380;SDS011;17169;50.966;11.038;2023-04-01T06:46:00;1.98;;;0.82;;
30380;SDS011;17169;50.966;11.038;2023-04-01T06:49:14;2.75;;;0.75;;
30380;SDS011;17169;50.966;11.038;2023-04-01T06:52:26;1.23;;;0.68;;
30380;SDS011;17169;50.966;11.038;2023-04-01T06:55:40;1.65;;;0.75;;
30380;SDS011;17169;50.966;11.038;2023-04-01T06:58:46;1.73;;;0.80;;
30380;SDS011;17169;50.966;11.038;2023-04-01T07:01:53;2.75;;;0.80;;
30380;SDS011;17169;50.966;11.038;2023-04-01T07:04:58;1.17;;;0.68;;
30380;SDS011;17169;50.966;11.038;2023-04-01T07:08:02;2.72;;;0.70;;
30380;SDS011;17169;50.966;11.038;2023-04-01T07:11:10;1.52;;;0.70;;
30380;SDS011;17169;50.966;11.038;2023-04-01T07:14:20;1.35;;;0.70;;
30380;SDS011;17169;50.966;11.038;2023-04-01T07:17:27;2.00;;;0.73;;
30380;SDS011;17169;50.966;11.038;2023-04-01T07:20:35;1.10;;;0.55;;
30380;SDS011;17169;50.966;11.038;2023-04-01T07:23:39;2.67;;;0.73;;
30380;SDS011;17169;50.966;11.038;2023-04-01T07:26:46;2.83;;;0.90;;
30380;SDS011;17169;50.966;11.038;2023-04-01T07:29:55;1.95;;;0.70;;
30380;SDS011;17169;50.966;11.038;2023-04-01T07:33:00;1.37;;;0.53;;
30380;SDS011;17169;50.966;11.038;2023-04-01T07:36:08;2.20;;;1.35;;
30380;SDS011;17169;50.966;11.038;2023-04-01T07:39:23;2.72;;;0.80;;
30380;SDS011;17169;50.966;11.038;2023-04-01T07:42:33;2.30;;;0.90;;
30380;SDS011;17169;50.966;11.038;2023-04-01T07:45:45;2.20;;;0.80;;
30380;SDS011;17169;50.966;11.038;2023-04-01T07:48:54;2.35;;;0.70;;
30380;SDS011;17169;50.966;11.038;2023-04-01T07:52:04;4.65;;;0.88;;
30380;SDS011;17169;50.966;11.038;2023-04-01T07:55:12;1.92;;;0.73;;
30380;SDS011;17169;50.966;11.038;2023-04-01T07:58:22;2.38;;;1.15;;
30380;SDS011;17169;50.966;11.038;2023-04-01T08:01:33;3.22;;;1.13;;
30380;SDS011;17169;50.966;11.038;2023-04-01T08:04:55;2.00;;;1.00;;
30380;SDS011;17169;50.966;11.038;2023-04-01T08:08:06;1.98;;;0.85;;
30380;SDS011;17169;50.966;11.038;2023-04-01T08:11:22;2.15;;;0.73;;
30380;SDS011;17169;50.966;11.038;2023-04-01T08:14:36;3.80;;;0.80;;
30380;SDS011;17169;50.966;11.038;2023-04-01T08:17:52;1.33;;;0.73;;
30380;SDS011;17169;50.966;11.038;2023-04-01T08:21:07;0.70;;;0.60;;
30380;SDS011;17169;50.966;11.038;2023-04-01T08:24:18;2.80;;;0.70;;
30380;SDS011;17169;50.966;11.038;2023-04-01T08:27:28;1.15;;;0.60;;
30380;SDS011;17169;50.966;11.038;2023-04-01T08:30:38;3.60;;;0.80;;
30380;SDS011;17169;50.966;11.038;2023-04-01T08:33:44;2.80;;;0.82;;
30380;SDS011;17169;50.966;11.038;2023-04-01T08:36:50;1.85;;;0.80;;
30380;SDS011;17169;50.966;11.038;2023-04-01T08:39:57;2.15;;;0.73;;
30380;SDS011;17169;50.966;11.038;2023-04-01T08:43:05;1.92;;;1.13;;
30380;SDS011;17169;50.966;11.038;2023-04-01T08:46:28;3.30;;;0.80;;
30380;SDS011;17169;50.966;11.038;2023-04-01T08:50:06;2.63;;;1.08;;
30380;SDS011;17169;50.966;11.038;2023-04-01T08:53:26;4.00;;;0.70;;
30380;SDS011;17169;50.966;11.038;2023-04-01T08:56:47;3.70;;;0.82;;
30380;SDS011;17169;50.966;11.038;2023-04-01T08:59:57;5.38;;;1.08;;
30380;SDS011;17169;50.966;11.038;2023-04-01T09:03:23;3.80;;;0.98;;
30380;SDS011;17169;50.966;11.038;2023-04-01T09:06:47;1.83;;;0.75;;
30380;SDS011;17169;50.966;11.038;2023-04-01T09:10:22;2.65;;;0.90;;
30380;SDS011;17169;50.966;11.038;2023-04-01T09:13:36;3.38;;;0.73;;
30380;SDS011;17169;50.966;11.038;2023-04-01T09:17:06;1.27;;;0.80;;
30380;SDS011;17169;50.966;11.038;2023-04-01T09:20:34;1.88;;;0.65;;
30380;SDS011;17169;50.966;11.038;2023-04-01T09:24:13;0.60;;;0.60;;
30380;SDS011;17169;50.966;11.038;2023-04-01T09:27:39;2.72;;;0.80;;
30380;SDS011;17169;50.966;11.038;2023-04-01T09:30:49;0.82;;;0.70;;
30380;SDS011;17169;50.966;11.038;2023-04-01T09:37:47;3.70;;;1.08;;
30380;SDS011;17169;50.966;11.038;2023-04-01T09:44:06;0.80;;;0.60;;
30380;SDS011;17169;50.966;11.038;2023-04-01T09:47:20;1.77;;;0.70;;
30380;SDS011;17169;50.966;11.038;2023-04-01T09:50:39;1.60;;;0.90;;
30380;SDS011;17169;50.966;11.038;2023-04-01T09:53:54;2.65;;;1.05;;
30380;SDS011;17169;50.966;11.038;2023-04-01T10:01:16;2.80;;;0.63;;
30380;SDS011;17169;50.966;11.038;2023-04-01T10:05:04;1.20;;;0.60;;
30380;SDS011;17169;50.966;11.038;2023-04-01T10:08:51;1.27;;;0.65;;
30380;SDS011;17169;50.966;11.038;2023-04-01T10:16:03;1.75;;;0.70;;
30380;SDS011;17169;50.966;11.038;2023-04-01T10:23:22;0.65;;;0.50;;
30380;SDS011;17169;50.966;11.038;2023-04-01T10:26:45;2.88;;;0.70;;
30380;SDS011;17169;50.966;11.038;2023-04-01T10:34:05;1.85;;;0.60;;
30380;SDS011;17169;50.966;11.038;2023-04-01T10:37:41;0.93;;;0.50;;
30380;SDS011;17169;50.966;11.038;2023-04-01T10:41:14;1.00;;;0.70;;
30380;SDS011;17169;50.966;11.038;2023-04-01T10:44:42;0.57;;;0.43;;
30380;SDS011;17169;50.966;11.038;2023-04-01T10:51:35;2.47;;;0.70;;
30380;SDS011;17169;50.966;11.038;2023-04-01T10:55:16;0.60;;;0.52;;
30380;SDS011;17169;50.966;11.038;2023-04-01T10:58:41;0.50;;;0.50;;
30380;SDS011;17169;50.966;11.038;2023-04-01T11:02:28;1.98;;;0.50;;
30380;SDS011;17169;50.966;11.038;2023-04-01T11:06:16;0.55;;;0.50;;
30380;SDS011;17169;50.966;11.038;2023-04-01T11:10:00;0.60;;;0.50;;
30380;SDS011;17169;50.966;11.038;2023-04-01T11:13:35;0.68;;;0.50;;
30380;SDS011;17169;50.966;11.038;2023-04-01T11:24:25;0.50;;;0.40;;
30380;SDS011;17169;50.966;11.038;2023-04-01T11:27:53;0.88;;;0.55;;
30380;SDS011;17169;50.966;11.038;2023-04-01T11:31:25;1.15;;;0.60;;
30380;SDS011;17169;50.966;11.038;2023-04-01T11:34:45;0.90;;;0.50;;
30380;SDS011;17169;50.966;11.038;2023-04-01T11:38:00;1.23;;;0.75;;
30380;SDS011;17169;50.966;11.038;2023-04-01T11:41:14;0.63;;;0.60;;
30380;SDS011;17169;50.966;11.038;2023-04-01T11:44:27;1.65;;;0.80;;
30380;SDS011;17169;50.966;11.038;2023-04-01T11:51:08;3.00;;;1.10;;
30380;SDS011;17169;50.966;11.038;2023-04-01T11:54:27;0.73;;;0.50;;
30380;SDS011;17169;50.966;11.038;2023-04-01T11:57:46;2.08;;;0.80;;
30380;SDS011;17169;50.966;11.038;2023-04-01T12:01:07;1.77;;;0.80;;
30380;SDS011;17169;50.966;11.038;2023-04-01T12:04:32;1.77;;;0.60;;
30380;SDS011;17169;50.966;11.038;2023-04-01T12:07:50;1.48;;;0.50;;
30380;SDS011;17169;50.966;11.038;2023-04-01T12:11:00;1.63;;;0.68;;
30380;SDS011;17169;50.966;11.038;2023-04-01T12:14:11;1.77;;;0.70;;
30380;SDS011;17169;50.966;11.038;2023-04-01T12:17:23;2.08;;;0.70;;
30380;SDS011;17169;50.966;11.038;2023-04-01T12:20:38;1.55;;;0.60;;
30380;SDS011;17169;50.966;11.038;2023-04-01T12:24:03;2.50;;;0.70;;
30380;SDS011;17169;50.966;11.038;2023-04-01T12:27:29;1.30;;;0.63;;
30380;SDS011;17169;50.966;11.038;2023-04-01T12:30:46;1.27;;;0.50;;
30380;SDS011;17169;50.966;11.038;2023-04-01T12:34:00;0.50;;;0.50;;
30380;SDS011;17169;50.966;11.038;2023-04-01T12:37:29;0.52;;;0.52;;
30380;SDS011;17169;50.966;11.038;2023-04-01T12:40:40;0.40;;;0.40;;
30380;SDS011;17169;50.966;11.038;2023-04-01T12:44:04;1.60;;;0.75;;
30380;SDS011;17169;50.966;11.038;2023-04-01T12:47:33;0.40;;;0.40;;
30380;SDS011;17169;50.966;11.038;2023-04-01T12:51:10;0.47;;;0.47;;
30380;SDS011;17169;50.966;11.038;2023-04-01T12:58:21;1.05;;;0.45;;
30380;SDS011;17169;50.966;11.038;2023-04-01T13:01:47;1.10;;;0.60;;
30380;SDS011;17169;50.966;11.038;2023-04-01T13:05:09;0.30;;;0.30;;
30380;SDS011;17169;50.966;11.038;2023-04-01T13:08:36;0.50;;;0.50;;
30380;SDS011;17169;50.966;11.038;2023-04-01T13:11:50;1.25;;;0.75;;
30380;SDS011;17169;50.966;11.038;2023-04-01T13:15:06;2.08;;;0.50;;
30380;SDS011;17169;50.966;11.038;2023-04-01T13:18:26;1.85;;;0.80;;
30380;SDS011;17169;50.966;11.038;2023-04-01T13:21:40;0.53;;;0.50;;
30380;SDS011;17169;50.966;11.038;2023-04-01T13:24:52;1.27;;;0.68;;
30380;SDS011;17169;50.966;11.038;2023-04-01T13:28:05;0.60;;;0.40;;
30380;SDS011;17169;50.966;11.038;2023-04-01T13:31:20;0.47;;;0.47;;
30380;SDS011;17169;50.966;11.038;2023-04-01T13:34:45;1.05;;;0.60;;
30380;SDS011;17169;50.966;11.038;2023-04-01T13:38:06;0.52;;;0.45;;
30380;SDS011;17169;50.966;11.038;2023-04-01T13:41:29;1.00;;;0.70;;
30380;SDS011;17169;50.966;11.038;2023-04-01T13:44:45;1.02;;;0.55;;
30380;SDS011;17169;50.966;11.038;2023-04-01T13:48:04;0.80;;;0.60;;
30380;SDS011;17169;50.966;11.038;2023-04-01T13:51:30;0.85;;;0.50;;
30380;SDS011;17169;50.966;11.038;2023-04-01T13:54:47;0.50;;;0.40;;
30380;SDS011;17169;50.966;11.038;2023-04-01T14:01:54;0.47;;;0.47;;
30380;SDS011;17169;50.966;11.038;2023-04-01T14:05:12;0.52;;;0.50;;
30380;SDS011;17169;50.966;11.038;2023-04-01T14:08:36;3.10;;;0.50;;
30380;SDS011;17169;50.966;11.038;2023-04-01T14:12:15;0.60;;;0.50;;
30380;SDS011;17169;50.966;11.038;2023-04-01T14:15:46;2.08;;;1.10;;
30380;SDS011;17169;50.966;11.038;2023-04-01T14:19:06;2.13;;;0.70;;
30380;SDS011;17169;50.966;11.038;2023-04-01T14:22:21;0.77;;;0.52;;
30380;SDS011;17169;50.966;11.038;2023-04-01T14:25:34;0.50;;;0.45;;
30380;SDS011;17169;50.966;11.038;2023-04-01T14:28:50;1.60;;;0.60;;
30380;SDS011;17169;50.966;11.038;2023-04-01T14:32:06;0.32;;;0.32;;
30380;SDS011;17169;50.966;11.038;2023-04-01T14:35:24;0.73;;;0.50;;
30380;SDS011;17169;50.966;11.038;2023-04-01T14:38:42;1.02;;;0.50;;
30380;SDS011;17169;50.966;11.038;2023-04-01T14:41:56;0.65;;;0.40;;
30380;SDS011;17169;50.966;11.038;2023-04-01T14:45:25;0.35;;;0.35;;
30380;SDS011;17169;50.966;11.038;2023-04-01T14:48:49;0.40;;;0.40;;
30380;SDS011;17169;50.966;11.038;2023-04-01T14:51:56;1.13;;;0.40;;
30380;SDS011;17169;50.966;11.038;2023-04-01T14:55:19;0.50;;;0.50;;
30380;SDS011;17169;50.966;11.038;2023-04-01T14:58:38;0.77;;;0.50;;
30380;SDS011;17169;50.966;11.038;2023-04-01T15:01:47;0.70;;;0.50;;
30380;SDS011;17169;50.966;11.038;2023-04-01T15:04:54;3.00;;;0.68;;
30380;SDS011;17169;50.966;11.038;2023-04-01T15:08:04;1.65;;;0.70;;
30380;SDS011;17169;50.966;11.038;2023-04-01T15:11:26;1.00;;;0.50;;
30380;SDS011;17169;50.966;11.038;2023-04-01T15:14:40;0.50;;;0.50;;
30380;SDS011;17169;50.966;11.038;2023-04-01T15:18:04;0.82;;;0.50;;
30380;SDS011;17169;50.966;11.038;2023-04-01T15:21:13;1.10;;;0.47;;
30380;SDS011;17169;50.966;11.038;2023-04-01T15:24:30;0.45;;;0.45;;
30380;SDS011;17169;50.966;11.038;2023-04-01T15:27:47;1.02;;;0.68;;
30380;SDS011;17169;50.966;11.038;2023-04-01T15:30:56;1.15;;;0.60;;
30380;SDS011;17169;50.966;11.038;2023-04-01T15:34:09;1.17;;;0.75;;
30380;SDS011;17169;50.966;11.038;2023-04-01T15:37:33;2.35;;;0.80;;
30380;SDS011;17169;50.966;11.038;2023-04-01T15:40:47;0.98;;;0.60;;
30380;SDS011;17169;50.966;11.038;2023-04-01T15:43:55;1.00;;;0.70;;
30380;SDS011;17169;50.966;11.038;2023-04-01T15:46:57;0.43;;;0.40;;
30380;SDS011;17169;50.966;11.038;2023-04-01T15:50:21;1.02;;;0.60;;
30380;SDS011;17169;50.966;11.038;2023-04-01T15:53:45;0.63;;;0.50;;
30380;SDS011;17169;50.966;11.038;2023-04-01T15:57:04;0.90;;;0.57;;
30380;SDS011;17169;50.966;11.038;2023-04-01T16:00:22;0.63;;;0.50;;
30380;SDS011;17169;50.966;11.038;2023-04-01T16:03:31;0.52;;;0.50;;
30380;SDS011;17169;50.966;11.038;2023-04-01T16:06:44;0.50;;;0.50;;
30380;SDS011;17169;50.966;11.038;2023-04-01T16:10:05;1.38;;;0.80;;
30380;SDS011;17169;50.966;11.038;2023-04-01T16:13:20;3.03;;;0.68;;
30380;SDS011;17169;50.966;11.038;2023-04-01T16:16:33;2.92;;;1.08;;
30380;SDS011;17169;50.966;11.038;2023-04-01T16:19:55;4.43;;;1.60;;
30380;SDS011;17169;50.966;11.038;2023-04-01T16:23:04;3.72;;;1.63;;
30380;SDS011;17169;50.966;11.038;2023-04-01T16:26:18;3.45;;;1.63;;
30380;SDS011;17169;50.966;11.038;2023-04-01T16:29:30;2.15;;;1.10;;
30380;SDS011;17169;50.966;11.038;2023-04-01T16:32:41;1.13;;;0.73;;
30380;SDS011;17169;50.966;11.038;2023-04-01T16:35:53;1.25;;;0.80;;
30380;SDS011;17169;50.966;11.038;2023-04-01T16:39:08;1.38;;;0.77;;
30380;SDS011;17169;50.966;11.038;2023-04-01T16:42:31;2.65;;;1.05;;
30380;SDS011;17169;50.966;11.038;2023-04-01T16:45:45;2.67;;;1.33;;
30380;SDS011;17169;50.966;11.038;2023-04-01T16:48:58;9.45;;;3.53;;
30380;SDS011;17169;50.966;11.038;2023-04-01T16:52:15;6.45;;;2.20;;
30380;SDS011;17169;50.966;11.038;2023-04-01T16:55:19;1.75;;;1.00;;
30380;SDS011;17169;50.966;11.038;2023-04-01T16:58:24;2.67;;;1.10;;
30380;SDS011;17169;50.966;11.038;2023-04-01T17:01:31;1.35;;;0.93;;
30380;SDS011;17169;50.966;11.038;2023-04-01T17:04:45;2.03;;;1.08;;
30380;SDS011;17169;50.966;11.038;2023-04-01T17:07:58;2.58;;;1.20;;
30380;SDS011;17169;50.966;11.038;2023-04-01T17:11:12;4.72;;;2.45;;
30380;SDS011;17169;50.966;11.038;2023-04-01T17:14:21;3.20;;;0.90;;
30380;SDS011;17169;50.966;11.038;2023-04-01T17:17:33;4.55;;;1.00;;
30380;SDS011;17169;50.966;11.038;2023-04-01T17:20:40;1.08;;;0.75;;
30380;SDS011;17169;50.966;11.038;2023-04-01T17:23:45;2.95;;;1.02;;
30380;SDS011;17169;50.966;11.038;2023-04-01T17:26:53;2.50;;;1.25;;
30380;SDS011;17169;50.966;11.038;2023-04-01T17:30:22;2.53;;;1.50;;
30380;SDS011;17169;50.966;11.038;2023-04-01T17:37:18;2.65;;;1.17;;
30380;SDS011;17169;50.966;11.038;2023-04-01T17:40:41;4.90;;;1.55;;
30380;SDS011;17169;50.966;11.038;2023-04-01T17:43:58;3.10;;;1.48;;
30380;SDS011;17169;50.966;11.038;2023-04-01T17:47:21;4.93;;;1.40;;
30380;SDS011;17169;50.966;11.038;2023-04-01T17:50:42;4.15;;;1.52;;
30380;SDS011;17169;50.966;11.038;2023-04-01T17:53:56;3.80;;;1.77;;
30380;SDS011;17169;50.966;11.038;2023-04-01T17:57:09;3.75;;;2.03;;
30380;SDS011;17169;50.966;11.038;2023-04-01T18:00:26;3.20;;;1.70;;
30380;SDS011;17169;50.966;11.038;2023-04-01T18:07:18;5.38;;;2.22;;
30380;SDS011;17169;50.966;11.038;2023-04-01T18:10:40;5.28;;;2.38;;
30380;SDS011;17169;50.966;11.038;2023-04-01T18:13:54;6.80;;;3.42;;
30380;SDS011;17169;50.966;11.038;2023-04-01T18:17:25;8.95;;;4.45;;
30380;SDS011;17169;50.966;11.038;2023-04-01T18:20:36;5.97;;;3.90;;
30380;SDS011;17169;50.966;11.038;2023-04-01T18:23:46;8.00;;;4.70;;
30380;SDS011;17169;50.966;11.038;2023-04-01T18:27:00;5.10;;;3.55;;
30380;SDS011;17169;50.966;11.038;2023-04-01T18:30:07;5.18;;;2.75;;
30380;SDS011;17169;50.966;11.038;2023-04-01T18:33:16;7.07;;;2.08;;
30380;SDS011;17169;50.966;11.038;2023-04-01T18:36:26;5.50;;;2.20;;
30380;SDS011;17169;50.966;11.038;2023-04-01T18:39:40;5.53;;;2.58;;
30380;SDS011;17169;50.966;11.038;2023-04-01T18:42:46;5.00;;;2.93;;
30380;SDS011;17169;50.966;11.038;2023-04-01T18:46:02;5.85;;;3.17;;
30380;SDS011;17169;50.966;11.038;2023-04-01T18:49:13;5.22;;;2.55;;
30380;SDS011;17169;50.966;11.038;2023-04-01T18:52:23;4.28;;;2.45;;
30380;SDS011;17169;50.966;11.038;2023-04-01T18:55:32;4.05;;;2.13;;
30380;SDS011;17169;50.966;11.038;2023-04-01T18:58:45;5.25;;;2.90;;
30380;SDS011;17169;50.966;11.038;2023-04-01T19:01:52;5.95;;;2.47;;
30380;SDS011;17169;50.966;11.038;2023-04-01T19:05:05;9.15;;;2.45;;
30380;SDS011;17169;50.966;11.038;2023-04-01T19:08:22;5.20;;;2.63;;
30380;SDS011;17169;50.966;11.038;2023-04-01T19:14:42;5.22;;;2.70;;
30380;SDS011;17169;50.966;11.038;2023-04-01T19:17:58;5.97;;;2.40;;
30380;SDS011;17169;50.966;11.038;2023-04-01T19:21:16;5.45;;;2.15;;
30380;SDS011;17169;50.966;11.038;2023-04-01T19:24:33;4.03;;;1.80;;
30380;SDS011;17169;50.966;11.038;2023-04-01T19:27:48;3.40;;;1.90;;
30380;SDS011;17169;50.966;11.038;2023-04-01T19:30:55;5.57;;;1.92;;
30380;SDS011;17169;50.966;11.038;2023-04-01T19:34:03;3.70;;;2.38;;
30380;SDS011;17169;50.966;11.038;2023-04-01T19:37:20;4.93;;;2.55;;
30380;SDS011;17169;50.966;11.038;2023-04-01T19:40:36;5.00;;;2.75;;
30380;SDS011;17169;50.966;11.038;2023-04-01T19:43:49;3.60;;;2.05;;
30380;SDS011;17169;50.966;11.038;2023-04-01T19:46:58;3.25;;;2.10;;
30380;SDS011;17169;50.966;11.038;2023-04-01T19:50:10;3.58;;;2.15;;
30380;SDS011;17169;50.966;11.038;2023-04-01T19:53:28;3.95;;;2.35;;
30380;SDS011;17169;50.966;11.038;2023-04-01T19:56:39;4.07;;;2.20;;
30380;SDS011;17169;50.966;11.038;2023-04-01T19:59:48;6.03;;;2.22;;
30380;SDS011;17169;50.966;11.038;2023-04-01T20:03:00;4.05;;;1.90;;
30380;SDS011;17169;50.966;11.038;2023-04-01T20:06:09;4.22;;;2.20;;
30380;SDS011;17169;50.966;11.038;2023-04-01T20:09:33;3.15;;;1.92;;